createdAt,value
2018-12-20T00:09:47.999Z,25.77
2018-12-20T00:19:50.557Z,22.63
2018-12-20T00:29:53.185Z,22.87
2018-12-20T00:39:55.867Z,22.37
2018-12-20T00:49:58.586Z,21.60
2018-12-20T01:00:01.047Z,21.03
2018-12-20T01:10:04.819Z,20.30
2018-12-20T01:20:08.425Z,20.77
2018-12-20T01:30:11.100Z,21.23
2018-12-20T01:40:13.644Z,21.10
2018-12-20T01:50:16.195Z,21.27
2018-12-20T02:00:18.762Z,20.83
2018-12-20T02:10:21.289Z,21.27
2018-12-20T02:20:23.788Z,21.00
2018-12-20T02:30:26.696Z,20.73
2018-12-20T02:40:29.799Z,21.67
2018-12-20T02:50:32.329Z,22.30
2018-12-20T03:00:34.844Z,21.97
2018-12-20T03:10:37.552Z,21.57
2018-12-20T03:20:40.113Z,21.33
2018-12-20T03:30:42.582Z,21.27
2018-12-20T03:40:45.058Z,20.13
2018-12-20T03:50:47.518Z,21.43
2018-12-20T04:00:50.192Z,20.13
2018-12-20T04:10:52.764Z,20.37
2018-12-20T04:20:55.343Z,20.53
2018-12-20T04:30:57.879Z,21.53
2018-12-20T04:41:00.384Z,19.60
2018-12-20T04:51:02.955Z,19.50
2018-12-20T05:01:05.606Z,18.37
2018-12-20T05:11:08.176Z,20.87
2018-12-20T05:21:10.637Z,19.83
2018-12-20T05:31:13.113Z,20.60
2018-12-20T05:41:15.637Z,19.47
2018-12-20T05:51:18.381Z,19.80
2018-12-20T06:01:20.935Z,20.83
2018-12-20T06:11:23.500Z,19.47
2018-12-20T06:21:26.047Z,18.03
2018-12-20T06:31:28.518Z,19.73
2018-12-20T06:41:31.003Z,18.57
2018-12-20T06:51:33.544Z,19.83
2018-12-20T07:01:37.106Z,19.30
2018-12-20T07:11:43.469Z,17.87
2018-12-20T07:21:46.010Z,13.57
2018-12-20T07:31:48.618Z,8.23
2018-12-20T07:41:51.108Z,7.73
2018-12-20T07:51:53.773Z,7.63
2018-12-20T08:01:56.372Z,6.53
2018-12-20T08:11:58.930Z,5.53
2018-12-20T08:22:02.393Z,5.80
2018-12-20T08:32:06.399Z,4.70
2018-12-20T08:42:09.612Z,4.77
2018-12-20T08:52:12.084Z,4.30
2018-12-20T09:02:14.787Z,4.40
2018-12-20T09:12:17.466Z,3.80
2018-12-20T09:22:19.963Z,4.30
2018-12-20T09:32:22.798Z,4.30
2018-12-20T09:42:25.317Z,4.60
2018-12-20T09:52:27.782Z,4.30
2018-12-20T10:02:30.231Z,4.40
2018-12-20T10:12:32.690Z,3.60
2018-12-20T10:22:35.167Z,4.10
2018-12-20T10:32:37.628Z,3.40
2018-12-20T10:42:40.085Z,3.40
2018-12-20T10:52:42.544Z,3.07
2018-12-20T11:02:50.743Z,3.20
2018-12-20T11:12:53.227Z,2.10
2018-12-20T11:22:55.747Z,2.53
2018-12-20T11:32:59.634Z,1.90
2018-12-20T11:43:02.384Z,2.50
2018-12-20T11:53:04.838Z,1.83
2018-12-20T12:03:07.302Z,1.93
2018-12-20T12:13:09.975Z,1.60
2018-12-20T12:23:12.423Z,1.90
2018-12-20T12:33:14.908Z,1.83
2018-12-20T12:43:17.575Z,1.80
2018-12-20T12:53:20.298Z,1.70
2018-12-20T13:03:22.763Z,1.83
2018-12-20T13:13:25.512Z,1.70
2018-12-20T13:23:28.030Z,2.90
2018-12-20T13:33:30.566Z,2.73
2018-12-20T13:43:33.083Z,1.30
2018-12-20T13:53:35.536Z,1.63
2018-12-20T14:03:38.163Z,1.70
2018-12-20T14:13:40.604Z,1.40
2018-12-20T14:23:43.071Z,1.50
2018-12-20T14:33:46.141Z,1.63
2018-12-20T14:43:48.751Z,1.77
2018-12-20T14:53:51.212Z,1.73
2018-12-20T15:03:53.659Z,1.57
2018-12-20T15:13:56.324Z,2.00
2018-12-20T15:23:58.900Z,2.07
2018-12-20T15:34:01.365Z,5.60
2018-12-20T15:44:03.907Z,2.33
2018-12-20T15:54:06.471Z,2.50
2018-12-20T16:04:09.024Z,2.40
2018-12-20T16:14:11.475Z,3.10
2018-12-20T16:24:13.992Z,2.83
2018-12-20T16:34:16.467Z,3.50
2018-12-20T16:44:20.020Z,3.47
2018-12-20T16:54:22.475Z,3.70
2018-12-20T17:04:24.934Z,3.57
2018-12-20T17:14:27.483Z,3.00
2018-12-20T17:24:29.940Z,5.83
2018-12-20T17:34:32.407Z,2.80
2018-12-20T17:44:34.880Z,2.87
2018-12-20T17:54:37.384Z,2.83
2018-12-20T18:04:39.907Z,2.73
2018-12-20T18:14:42.366Z,3.40
2018-12-20T18:24:44.830Z,2.90
2018-12-20T18:34:49.380Z,3.27
2018-12-20T18:44:51.934Z,2.80
2018-12-20T18:54:54.595Z,4.53
2018-12-20T19:04:57.043Z,2.10
2018-12-20T19:14:59.500Z,2.10
2018-12-20T19:25:01.957Z,2.40
2018-12-20T19:35:05.664Z,2.40
2018-12-20T19:45:08.221Z,2.60
2018-12-20T19:55:10.820Z,2.50
2018-12-20T20:05:13.327Z,2.53
2018-12-20T20:15:16.801Z,2.63
2018-12-20T20:25:19.457Z,2.87
2018-12-20T20:35:22.204Z,3.27
2018-12-20T20:45:24.676Z,3.90
2018-12-20T20:55:27.148Z,3.33
2018-12-20T21:05:29.792Z,3.53
2018-12-20T21:15:32.255Z,3.10
2018-12-20T21:25:36.378Z,3.60
2018-12-20T21:35:39.081Z,3.20
2018-12-20T21:45:41.556Z,3.13
2018-12-20T21:55:44.012Z,3.30
2018-12-20T22:05:46.467Z,3.27
2018-12-20T22:15:48.918Z,3.23
2018-12-20T22:25:51.380Z,3.10
2018-12-20T22:35:53.829Z,2.30
2018-12-20T22:45:56.287Z,2.47
2018-12-20T22:55:58.745Z,2.73
2018-12-20T23:06:01.497Z,2.20
2018-12-20T23:16:04.325Z,2.57
2018-12-20T23:26:06.999Z,2.10
2018-12-20T23:36:09.803Z,2.23
2018-12-20T23:46:12.532Z,2.50
2018-12-20T23:56:15.105Z,2.27
